createdAt,value
2023-02-21T00:02:10.398Z,6.60
2023-02-21T00:04:55.107Z,7.00
2023-02-21T00:07:40.266Z,7.10
2023-02-21T00:10:25.177Z,7.30
2023-02-21T00:13:09.660Z,7.60
2023-02-21T00:15:54.330Z,7.00
2023-02-21T00:18:39.631Z,6.90
2023-02-21T00:21:25.058Z,7.30
2023-02-21T00:24:09.581Z,6.60
2023-02-21T00:26:54.066Z,6.60
2023-02-21T00:29:38.596Z,6.60
2023-02-21T00:32:23.738Z,6.30
2023-02-21T00:35:08.592Z,5.80
2023-02-21T00:37:53.653Z,5.90
2023-02-21T00:40:38.173Z,5.00
2023-02-21T00:43:23.265Z,5.30
2023-02-21T00:46:08.396Z,5.30
2023-02-21T00:48:53.359Z,4.70
2023-02-21T00:51:38.372Z,4.30
2023-02-21T00:54:23.002Z,4.00
2023-02-21T00:57:07.817Z,4.00
2023-02-21T00:59:52.688Z,3.60
2023-02-21T01:02:37.291Z,3.50
2023-02-21T01:05:22.395Z,3.90
2023-02-21T01:08:08.081Z,4.00
2023-02-21T01:10:53.264Z,4.30
2023-02-21T01:13:37.878Z,4.50
2023-02-21T01:16:25.241Z,5.30
2023-02-21T01:19:10.633Z,4.60
2023-02-21T01:21:55.578Z,4.70
2023-02-21T01:24:41.507Z,5.20
2023-02-21T01:27:26.083Z,5.10
2023-02-21T01:30:10.751Z,5.00
2023-02-21T01:32:55.666Z,5.70
2023-02-21T01:35:40.610Z,5.00
2023-02-21T01:38:25.182Z,4.70
2023-02-21T01:41:09.939Z,5.40
2023-02-21T01:43:54.481Z,4.60
2023-02-21T01:46:39.300Z,4.30
2023-02-21T01:49:30.571Z,4.10
2023-02-21T01:52:15.553Z,4.60
2023-02-21T01:55:05.783Z,4.20
2023-02-21T01:57:53.380Z,4.70
2023-02-21T02:00:38.753Z,5.00
2023-02-21T02:03:29.012Z,5.20
2023-02-21T02:06:27.447Z,5.00
2023-02-21T02:09:11.986Z,5.30
2023-02-21T02:12:22.058Z,5.00
2023-02-21T02:15:02.109Z,5.40
2023-02-21T02:17:42.410Z,5.50
2023-02-21T02:20:19.599Z,5.00
2023-02-21T02:22:57.393Z,5.70
2023-02-21T02:28:16.954Z,5.20
2023-02-21T02:31:09.813Z,5.50
2023-02-21T02:34:02.639Z,5.10
2023-02-21T02:36:36.797Z,5.00
2023-02-21T02:39:10.155Z,4.80
2023-02-21T02:41:49.381Z,4.50
2023-02-21T02:44:21.945Z,4.80
2023-02-21T02:46:48.705Z,4.70
2023-02-21T02:49:25.676Z,4.40
2023-02-21T02:51:51.801Z,4.00
2023-02-21T02:54:19.572Z,4.20
2023-02-21T02:56:45.920Z,3.60
2023-02-21T02:59:16.037Z,4.40
2023-02-21T03:01:49.151Z,4.50
2023-02-21T03:04:30.508Z,4.90
2023-02-21T03:07:15.055Z,4.70
2023-02-21T03:10:09.852Z,4.80
2023-02-21T03:12:55.543Z,3.80
2023-02-21T03:15:25.177Z,3.90
2023-02-21T03:17:56.182Z,4.00
2023-02-21T03:20:22.190Z,4.30
2023-02-21T03:22:48.251Z,3.90
2023-02-21T03:25:14.403Z,4.10
2023-02-21T03:27:41.459Z,4.20
2023-02-21T03:30:18.167Z,4.10
2023-02-21T03:32:50.269Z,3.80
2023-02-21T03:35:16.783Z,4.00
2023-02-21T03:37:44.634Z,3.20
2023-02-21T03:40:25.434Z,3.00
2023-02-21T03:42:52.749Z,2.90
2023-02-21T03:45:19.220Z,1.70
2023-02-21T03:47:54.520Z,2.80
2023-02-21T03:50:20.746Z,3.50
2023-02-21T03:52:46.838Z,4.30
2023-02-21T03:55:13.146Z,3.80
2023-02-21T03:57:39.177Z,4.10
2023-02-21T04:00:06.215Z,4.60
2023-02-21T04:02:41.644Z,5.00
2023-02-21T04:05:09.317Z,5.30
2023-02-21T04:07:35.458Z,5.60
2023-02-21T04:10:01.646Z,5.80
2023-02-21T04:12:36.357Z,6.00
2023-02-21T04:15:02.999Z,5.90
2023-02-21T04:17:29.003Z,4.60
2023-02-21T04:19:55.873Z,4.30
2023-02-21T04:22:22.204Z,4.30
2023-02-21T04:24:48.425Z,3.60
2023-02-21T04:27:15.620Z,3.00
2023-02-21T04:29:46.688Z,3.10
2023-02-21T04:32:12.924Z,3.10
2023-02-21T04:34:39.046Z,3.30
2023-02-21T04:37:05.039Z,3.70
2023-02-21T04:39:31.603Z,4.20
2023-02-21T04:41:57.828Z,3.60
2023-02-21T04:44:23.780Z,3.40
2023-02-21T04:46:49.727Z,3.00
2023-02-21T04:49:15.884Z,3.00
2023-02-21T04:51:41.864Z,2.30
2023-02-21T04:54:07.901Z,2.00
2023-02-21T04:56:33.958Z,2.20
2023-02-21T04:59:00.036Z,3.40
2023-02-21T05:01:27.796Z,2.80
2023-02-21T05:03:53.871Z,2.50
2023-02-21T05:06:21.069Z,2.00
2023-02-21T05:11:13.386Z,2.10
2023-02-21T05:13:39.608Z,2.60
2023-02-21T05:16:06.062Z,2.40
2023-02-21T05:18:33.974Z,2.00
2023-02-21T05:21:00.134Z,1.40
2023-02-21T05:23:35.557Z,1.60
2023-02-21T05:26:09.155Z,1.30
2023-02-21T05:28:35.608Z,0.90
2023-02-21T05:31:01.736Z,1.10
2023-02-21T05:33:27.963Z,1.30
2023-02-21T05:35:53.893Z,1.10
2023-02-21T05:38:20.101Z,1.00
2023-02-21T05:40:46.122Z,1.40
2023-02-21T05:43:12.156Z,1.70
2023-02-21T05:45:38.188Z,2.70
2023-02-21T05:48:04.415Z,2.00
2023-02-21T05:50:30.367Z,2.50
2023-02-21T05:52:57.304Z,2.50
2023-02-21T05:55:23.516Z,2.00
2023-02-21T05:57:49.526Z,3.30
2023-02-21T06:00:23.932Z,1.10
2023-02-21T06:02:51.593Z,3.00
2023-02-21T06:05:18.798Z,2.90
2023-02-21T06:07:45.516Z,2.80
2023-02-21T06:10:11.605Z,2.00
2023-02-21T06:12:40.546Z,2.10
2023-02-21T06:15:08.020Z,2.30
2023-02-21T06:17:36.339Z,2.30
2023-02-21T06:20:03.707Z,2.20
2023-02-21T06:22:29.956Z,1.70
2023-02-21T06:24:56.071Z,1.90
2023-02-21T06:27:22.176Z,2.30
2023-02-21T06:29:48.138Z,2.60
2023-02-21T06:32:14.065Z,2.40
2023-02-21T06:34:40.058Z,3.50
2023-02-21T06:37:06.495Z,2.70
2023-02-21T06:39:32.402Z,3.90
2023-02-21T06:41:59.279Z,2.50
2023-02-21T06:44:25.155Z,3.00
2023-02-21T06:46:51.223Z,2.60
2023-02-21T06:49:17.248Z,4.70
2023-02-21T06:51:43.192Z,5.90
2023-02-21T06:54:09.305Z,3.00
2023-02-21T06:56:35.698Z,3.10
2023-02-21T06:59:01.941Z,4.40
2023-02-21T07:01:28.493Z,3.70
2023-02-21T07:03:55.332Z,3.50
2023-02-21T07:06:21.349Z,3.00
2023-02-21T07:08:47.674Z,4.60
2023-02-21T07:11:14.382Z,3.10
2023-02-21T07:13:40.604Z,2.90
2023-02-21T07:16:06.672Z,4.80
2023-02-21T07:18:32.858Z,6.50
2023-02-21T07:20:59.129Z,4.20
2023-02-21T07:23:25.152Z,4.80
2023-02-21T07:25:51.287Z,7.00
2023-02-21T07:28:17.362Z,7.30
2023-02-21T07:30:43.315Z,6.70
2023-02-21T07:33:09.404Z,7.00
2023-02-21T07:35:35.468Z,6.70
2023-02-21T07:38:03.657Z,6.50
2023-02-21T07:40:29.552Z,5.30
2023-02-21T07:42:55.533Z,5.50
2023-02-21T07:45:21.659Z,7.40
2023-02-21T07:47:50.323Z,7.60
2023-02-21T07:50:16.717Z,5.70
2023-02-21T07:52:42.707Z,6.20
2023-02-21T07:55:08.750Z,8.00
2023-02-21T07:57:34.716Z,9.80
2023-02-21T08:00:00.646Z,8.00
2023-02-21T08:02:26.696Z,7.20
2023-02-21T08:04:52.647Z,6.00
2023-02-21T08:07:18.663Z,7.50
2023-02-21T08:09:44.584Z,6.10
2023-02-21T08:12:10.535Z,8.70
2023-02-21T08:14:36.449Z,5.80
2023-02-21T08:17:02.386Z,5.90
2023-02-21T08:19:28.373Z,6.10
2023-02-21T08:21:54.343Z,8.20
2023-02-21T08:24:20.526Z,10.10
2023-02-21T08:26:46.936Z,8.30
2023-02-21T08:29:13.717Z,8.20
2023-02-21T08:31:40.458Z,5.60
2023-02-21T08:34:06.929Z,9.00
2023-02-21T08:36:37.402Z,6.20
2023-02-21T08:39:03.640Z,6.90
2023-02-21T08:41:43.100Z,10.00
2023-02-21T08:44:10.768Z,5.70
2023-02-21T08:46:38.895Z,7.30
2023-02-21T08:49:04.991Z,7.90
2023-02-21T08:51:32.012Z,6.80
2023-02-21T08:53:58.081Z,8.70
2023-02-21T08:56:24.510Z,6.60
2023-02-21T08:58:50.592Z,5.60
2023-02-21T09:01:17.127Z,7.00
2023-02-21T09:03:43.335Z,7.10
2023-02-21T09:06:09.499Z,7.70
2023-02-21T09:08:36.442Z,6.00
2023-02-21T09:11:02.457Z,6.30
2023-02-21T09:13:28.997Z,9.00
2023-02-21T09:15:56.031Z,7.80
2023-02-21T09:18:22.570Z,7.90
2023-02-21T09:20:53.225Z,5.80
2023-02-21T09:23:19.851Z,8.40
2023-02-21T09:25:46.712Z,7.30
2023-02-21T09:28:13.597Z,7.80
2023-02-21T09:30:42.413Z,8.60
2023-02-21T09:33:08.930Z,6.10
2023-02-21T09:35:34.994Z,8.80
2023-02-21T09:38:01.116Z,9.30
2023-02-21T09:40:41.074Z,10.40
2023-02-21T09:43:26.028Z,9.50
2023-02-21T09:45:54.587Z,7.80
2023-02-21T09:48:21.385Z,9.00
2023-02-21T09:50:55.040Z,9.00
2023-02-21T09:53:26.456Z,8.40
2023-02-21T09:55:54.372Z,8.90
2023-02-21T09:58:20.700Z,8.60
2023-02-21T10:00:47.093Z,11.00
2023-02-21T10:03:35.174Z,6.70
2023-02-21T10:06:07.647Z,8.60
2023-02-21T10:08:39.921Z,10.20
2023-02-21T10:11:27.972Z,7.00
2023-02-21T10:14:01.769Z,7.10
2023-02-21T10:16:38.982Z,9.30
2023-02-21T10:19:30.697Z,5.60
2023-02-21T10:21:58.153Z,6.10
2023-02-21T10:24:24.976Z,7.80
2023-02-21T10:27:01.352Z,7.70
2023-02-21T10:29:45.904Z,10.00
2023-02-21T10:32:12.158Z,6.60
2023-02-21T10:34:39.914Z,8.90
2023-02-21T10:37:14.966Z,8.40
2023-02-21T10:39:46.104Z,7.60
2023-02-21T10:42:25.923Z,9.30
2023-02-21T10:44:52.161Z,9.00
2023-02-21T10:47:20.116Z,9.40
2023-02-21T10:49:49.719Z,7.90
2023-02-21T10:52:17.525Z,9.90
2023-02-21T10:55:31.230Z,9.30
2023-02-21T10:57:58.439Z,8.10
2023-02-21T11:00:30.603Z,9.30
2023-02-21T11:02:57.307Z,9.10
2023-02-21T11:05:23.531Z,7.90
2023-02-21T11:08:00.632Z,10.00
2023-02-21T11:10:32.038Z,9.30
2023-02-21T11:13:12.846Z,9.70
2023-02-21T11:15:38.793Z,12.80
2023-02-21T11:18:16.040Z,10.30
2023-02-21T11:20:42.168Z,13.00
2023-02-21T11:23:25.605Z,12.40
2023-02-21T11:25:57.016Z,9.00
2023-02-21T11:28:23.284Z,8.90
2023-02-21T11:30:58.665Z,11.30
2023-02-21T11:33:24.750Z,10.50
2023-02-21T11:35:51.960Z,10.50
2023-02-21T11:38:35.244Z,8.20
2023-02-21T11:41:02.405Z,11.60
2023-02-21T11:45:55.161Z,21.20
2023-02-21T11:48:27.427Z,14.60
2023-02-21T11:50:53.439Z,9.00
2023-02-21T11:53:25.447Z,10.80
2023-02-21T11:55:58.705Z,10.50
2023-02-21T11:58:50.386Z,12.40
2023-02-21T12:01:20.281Z,11.90
2023-02-21T12:04:15.325Z,15.90
2023-02-21T12:06:44.515Z,14.60
2023-02-21T12:09:16.493Z,23.90
2023-02-21T12:11:51.330Z,2.60
2023-02-21T12:14:38.346Z,10.50
2023-02-21T12:17:31.949Z,18.50
2023-02-21T12:20:19.681Z,12.30
2023-02-21T12:22:57.925Z,13.30
2023-02-21T12:25:27.173Z,16.20
2023-02-21T12:27:59.211Z,12.70
2023-02-21T12:30:36.066Z,10.80
2023-02-21T12:33:20.605Z,11.00
2023-02-21T12:35:50.727Z,12.40
2023-02-21T12:38:35.841Z,15.10
2023-02-21T12:41:18.787Z,10.40
2023-02-21T12:44:11.158Z,16.50
2023-02-21T12:46:59.438Z,11.70
2023-02-21T12:52:04.930Z,11.40
2023-02-21T12:54:40.917Z,14.70
2023-02-21T12:57:12.571Z,11.80
2023-02-21T12:59:46.161Z,14.60
2023-02-21T13:02:18.731Z,13.50
2023-02-21T13:04:50.701Z,13.10
2023-02-21T13:07:25.812Z,11.30
2023-02-21T13:10:13.457Z,10.40
2023-02-21T13:12:58.370Z,10.50
2023-02-21T13:15:28.237Z,9.10
2023-02-21T13:18:31.836Z,11.90
2023-02-21T13:21:25.859Z,14.00
2023-02-21T13:23:53.873Z,17.90
2023-02-21T13:26:35.377Z,10.80
2023-02-21T13:29:01.397Z,11.40
2023-02-21T13:31:38.629Z,11.90
2023-02-21T13:34:08.905Z,13.00
2023-02-21T13:36:37.597Z,8.40
2023-02-21T13:39:13.771Z,13.20
2023-02-21T13:41:42.728Z,10.40
2023-02-21T13:44:18.741Z,13.30
2023-02-21T13:46:44.712Z,12.00
2023-02-21T13:49:39.019Z,15.90
2023-02-21T13:52:24.165Z,14.70
2023-02-21T13:55:16.287Z,17.50
2023-02-21T13:58:12.372Z,11.10
2023-02-21T14:00:38.298Z,15.90
2023-02-21T14:03:24.473Z,17.40
2023-02-21T14:05:50.495Z,14.40
2023-02-21T14:08:24.304Z,16.90
2023-02-21T14:10:52.577Z,12.10
2023-02-21T14:13:18.547Z,16.90
2023-02-21T14:15:45.751Z,11.70
2023-02-21T14:18:21.040Z,16.70
2023-02-21T14:20:48.880Z,12.20
2023-02-21T14:23:16.934Z,17.00
2023-02-21T14:26:00.135Z,18.80
2023-02-21T14:28:57.644Z,14.60
2023-02-21T14:31:45.508Z,16.20
2023-02-21T14:34:11.640Z,11.40
2023-02-21T14:36:37.820Z,19.80
2023-02-21T14:39:03.709Z,16.70
2023-02-21T14:41:41.879Z,15.70
2023-02-21T14:44:37.133Z,12.90
2023-02-21T14:47:25.089Z,11.50
2023-02-21T14:50:09.608Z,16.30
2023-02-21T14:52:39.054Z,15.00
2023-02-21T14:55:30.001Z,14.50
2023-02-21T14:58:23.810Z,16.90
2023-02-21T15:01:00.094Z,18.10
2023-02-21T15:03:51.528Z,6.90
2023-02-21T15:06:20.452Z,12.20
2023-02-21T15:08:48.227Z,13.50
2023-02-21T15:11:30.537Z,13.90
2023-02-21T15:14:21.795Z,14.80
2023-02-21T15:16:53.634Z,14.80
2023-02-21T15:19:24.597Z,12.20
2023-02-21T15:22:25.788Z,14.80
2023-02-21T15:24:58.863Z,11.30
2023-02-21T15:27:24.791Z,13.50
2023-02-21T15:30:16.656Z,14.30
2023-02-21T15:32:42.848Z,6.80
2023-02-21T15:35:15.911Z,14.40
2023-02-21T15:37:41.923Z,12.20
2023-02-21T15:40:21.769Z,18.40
2023-02-21T15:42:47.765Z,15.60
2023-02-21T15:45:28.258Z,19.20
2023-02-21T15:47:54.280Z,17.10
2023-02-21T15:50:34.286Z,17.10
2023-02-21T15:53:15.817Z,18.70
2023-02-21T15:55:41.803Z,15.10
2023-02-21T15:58:07.709Z,17.70
2023-02-21T16:00:33.714Z,17.00
2023-02-21T16:03:28.216Z,15.30
2023-02-21T16:05:55.271Z,17.90
2023-02-21T16:08:21.360Z,15.20
2023-02-21T16:10:47.286Z,16.10
2023-02-21T16:13:14.135Z,18.10
2023-02-21T16:15:40.391Z,16.80
2023-02-21T16:18:07.664Z,13.70
2023-02-21T16:20:34.274Z,15.10
2023-02-21T16:23:22.212Z,13.50
2023-02-21T16:26:06.444Z,18.80
2023-02-21T16:28:32.469Z,18.90
2023-02-21T16:31:00.422Z,15.00
2023-02-21T16:33:27.088Z,12.20
2023-02-21T16:35:53.269Z,17.90
2023-02-21T16:38:20.308Z,17.50
2023-02-21T16:40:46.433Z,21.60
2023-02-21T16:43:23.180Z,16.60
2023-02-21T16:45:50.938Z,18.40
2023-02-21T16:48:21.021Z,15.50
2023-02-21T16:50:47.866Z,15.80
2023-02-21T16:53:14.206Z,20.10
2023-02-21T16:55:41.883Z,19.10
2023-02-21T16:58:16.392Z,15.60
2023-02-21T17:00:42.328Z,16.30
2023-02-21T17:03:08.232Z,14.30
2023-02-21T17:05:35.378Z,13.70
2023-02-21T17:10:27.329Z,18.00
2023-02-21T17:12:53.452Z,23.10
2023-02-21T17:15:21.110Z,18.80
2023-02-21T17:17:53.253Z,17.20
2023-02-21T17:20:20.130Z,14.30
2023-02-21T17:22:47.734Z,18.30
2023-02-21T17:25:14.315Z,18.60
2023-02-21T17:27:40.625Z,15.50
2023-02-21T17:30:07.717Z,18.90
2023-02-21T17:34:59.703Z,14.50
2023-02-21T17:37:25.629Z,17.50
2023-02-21T17:39:53.082Z,17.50
2023-02-21T17:42:19.064Z,12.80
2023-02-21T17:44:46.652Z,14.30
2023-02-21T17:47:12.635Z,17.20
2023-02-21T17:49:38.658Z,18.00
2023-02-21T17:52:04.779Z,22.90
2023-02-21T17:54:30.783Z,19.60
2023-02-21T17:56:56.724Z,17.80
2023-02-21T17:59:22.731Z,20.80
2023-02-21T18:01:48.718Z,15.20
2023-02-21T18:04:14.747Z,16.80
2023-02-21T18:06:41.464Z,15.80
2023-02-21T18:09:07.567Z,15.80
2023-02-21T18:11:35.249Z,17.80
2023-02-21T18:14:01.883Z,18.10
2023-02-21T18:16:28.031Z,20.00
2023-02-21T18:18:54.037Z,15.70
2023-02-21T18:21:22.639Z,22.90
2023-02-21T18:23:48.946Z,19.40
2023-02-21T18:28:42.320Z,17.70
2023-02-21T18:31:10.808Z,7.60
2023-02-21T18:33:37.018Z,24.30
2023-02-21T18:36:05.000Z,22.60
2023-02-21T18:38:30.929Z,19.20
2023-02-21T18:41:01.159Z,17.80
2023-02-21T18:43:29.138Z,18.50
2023-02-21T18:45:57.188Z,15.90
2023-02-21T18:50:49.839Z,14.70
2023-02-21T18:53:16.351Z,19.80
2023-02-21T18:55:42.413Z,13.10
2023-02-21T18:58:08.485Z,18.20
2023-02-21T19:00:35.909Z,10.30
2023-02-21T19:03:03.412Z,14.90
2023-02-21T19:05:29.465Z,19.40
2023-02-21T19:07:55.404Z,24.00
2023-02-21T19:10:22.897Z,19.70
2023-02-21T19:12:49.366Z,19.80
2023-02-21T19:15:15.992Z,20.60
2023-02-21T19:17:45.439Z,21.10
2023-02-21T19:20:12.191Z,26.80
2023-02-21T19:22:38.157Z,18.90
2023-02-21T19:25:05.044Z,22.20
2023-02-21T19:27:31.084Z,21.70
2023-02-21T19:29:57.026Z,21.40
2023-02-21T19:32:23.132Z,17.90
2023-02-21T19:34:50.220Z,18.00
2023-02-21T19:39:42.563Z,21.20
2023-02-21T19:42:08.559Z,21.00
2023-02-21T19:44:34.853Z,16.50
2023-02-21T19:47:00.876Z,19.20
2023-02-21T19:49:27.122Z,12.60
2023-02-21T19:51:53.759Z,19.20
2023-02-21T19:54:21.848Z,16.60
2023-02-21T19:56:49.418Z,16.60
2023-02-21T19:59:16.228Z,20.40
2023-02-21T20:01:42.142Z,18.90
2023-02-21T20:04:08.241Z,14.10
2023-02-21T20:06:35.571Z,19.30
2023-02-21T20:09:02.907Z,17.80
2023-02-21T20:11:28.897Z,18.10
2023-02-21T20:13:55.072Z,20.60
2023-02-21T20:16:21.785Z,16.60
2023-02-21T20:18:50.998Z,23.60
2023-02-21T20:21:18.631Z,21.10
2023-02-21T20:23:44.642Z,19.00
2023-02-21T20:26:12.223Z,22.20
2023-02-21T20:28:38.337Z,21.00
2023-02-21T20:31:04.588Z,18.70
2023-02-21T20:33:30.851Z,17.80
2023-02-21T20:35:57.826Z,18.20
2023-02-21T20:38:24.374Z,19.40
2023-02-21T20:40:50.439Z,19.20
2023-02-21T20:43:16.362Z,20.00
2023-02-21T20:45:43.808Z,17.70
2023-02-21T20:48:10.524Z,19.10
2023-02-21T20:50:36.917Z,18.70
2023-02-21T20:53:03.272Z,18.70
2023-02-21T20:55:29.199Z,15.70
2023-02-21T20:57:55.336Z,17.00
2023-02-21T21:00:22.821Z,17.10
2023-02-21T21:02:52.344Z,24.00
2023-02-21T21:05:19.915Z,16.60
2023-02-21T21:07:45.925Z,23.40
2023-02-21T21:10:13.975Z,17.40
2023-02-21T21:12:40.819Z,20.50
2023-02-21T21:15:09.225Z,19.30
2023-02-21T21:17:36.203Z,16.30
2023-02-21T21:20:05.157Z,20.10
2023-02-21T21:22:31.270Z,19.40
2023-02-21T21:24:57.188Z,19.50
2023-02-21T21:27:23.392Z,21.40
2023-02-21T21:29:49.887Z,17.20
2023-02-21T21:32:17.851Z,23.10
2023-02-21T21:34:51.102Z,15.90
2023-02-21T21:37:19.408Z,16.90
2023-02-21T21:39:48.577Z,16.70
2023-02-21T21:42:16.553Z,16.20
2023-02-21T21:44:51.279Z,19.80
2023-02-21T21:47:32.252Z,16.60
2023-02-21T21:49:58.898Z,20.70
2023-02-21T21:52:24.897Z,16.70
2023-02-21T21:54:50.854Z,16.00
2023-02-21T21:57:17.675Z,15.90
2023-02-21T21:59:43.870Z,7.50
2023-02-21T22:02:10.609Z,5.00
2023-02-21T22:04:37.488Z,20.70
2023-02-21T22:07:03.770Z,21.70
2023-02-21T22:09:31.170Z,21.40
2023-02-21T22:11:57.230Z,7.50
2023-02-21T22:14:23.328Z,19.10
2023-02-21T22:16:50.462Z,10.30
2023-02-21T22:19:16.587Z,19.30
2023-02-21T22:21:43.345Z,20.90
2023-02-21T22:24:09.572Z,18.40
2023-02-21T22:26:39.081Z,22.80
2023-02-21T22:29:06.270Z,19.00
2023-02-21T22:31:32.373Z,10.70
2023-02-21T22:34:01.458Z,20.00
2023-02-21T22:36:31.295Z,16.40
2023-02-21T22:38:57.404Z,21.70
2023-02-21T22:41:30.048Z,19.60
2023-02-21T22:43:55.947Z,11.70
2023-02-21T22:46:25.220Z,23.00
2023-02-21T22:48:51.778Z,20.40
2023-02-21T22:51:18.414Z,19.30
2023-02-21T22:53:50.621Z,16.60
2023-02-21T22:56:24.493Z,17.60
2023-02-21T22:58:51.369Z,26.70
2023-02-21T23:01:20.257Z,21.50
2023-02-21T23:03:46.978Z,15.20
2023-02-21T23:06:13.961Z,16.60
2023-02-21T23:08:40.584Z,17.10
2023-02-21T23:11:06.936Z,13.00
2023-02-21T23:13:33.240Z,20.60
2023-02-21T23:16:00.544Z,21.50
2023-02-21T23:18:26.769Z,19.30
2023-02-21T23:20:54.206Z,13.60
2023-02-21T23:23:21.739Z,21.60
2023-02-21T23:25:47.769Z,21.60
2023-02-21T23:28:14.486Z,24.90
2023-02-21T23:30:40.851Z,18.80
2023-02-21T23:33:18.121Z,21.80
2023-02-21T23:35:45.445Z,15.70
2023-02-21T23:38:14.895Z,21.00
2023-02-21T23:40:43.388Z,11.70
2023-02-21T23:43:09.585Z,12.50
2023-02-21T23:45:38.718Z,21.00
2023-02-21T23:48:08.830Z,19.90
2023-02-21T23:50:36.223Z,11.10
2023-02-21T23:53:02.780Z,23.00
2023-02-21T23:55:29.376Z,21.60
2023-02-21T23:57:59.248Z,15.10
